createdAt,value
2023-03-15T00:04:05.874Z,72.86
2023-03-15T00:09:07.899Z,73.01
2023-03-15T00:14:10.802Z,73.55
2023-03-15T00:19:12.437Z,73.92
2023-03-15T00:24:14.165Z,74.58
2023-03-15T00:29:15.809Z,75.65
2023-03-15T00:34:18.960Z,77.25
2023-03-15T00:39:21.048Z,80.42
2023-03-15T00:44:24.395Z,82.23
2023-03-15T00:49:26.107Z,84.73
2023-03-15T00:54:27.829Z,84.91
2023-03-15T00:59:34.833Z,85.42
2023-03-15T01:04:37.231Z,86.17
2023-03-15T01:09:39.031Z,86.62
2023-03-15T01:14:40.971Z,86.60
2023-03-15T01:19:42.733Z,87.13
2023-03-15T01:24:44.574Z,87.53
2023-03-15T01:29:46.649Z,87.45
2023-03-15T01:34:49.751Z,87.35
2023-03-15T01:39:51.899Z,87.61
2023-03-15T01:44:55.764Z,87.37
2023-03-15T01:50:06.760Z,87.62
2023-03-15T01:55:14.094Z,87.72
2023-03-15T02:00:29.609Z,88.42
2023-03-15T02:05:46.112Z,89.40
2023-03-15T02:10:56.233Z,90.12
2023-03-15T02:16:00.216Z,89.77
2023-03-15T02:21:18.453Z,90.14
2023-03-15T02:26:34.625Z,90.47
2023-03-15T02:31:37.828Z,90.56
2023-03-15T02:36:39.890Z,90.47
2023-03-15T02:41:45.480Z,89.92
2023-03-15T02:46:51.142Z,90.01
2023-03-15T02:51:56.189Z,90.06
2023-03-15T02:56:57.887Z,90.12
2023-03-15T03:01:59.686Z,89.97
2023-03-15T03:07:01.465Z,89.72
2023-03-15T03:12:11.317Z,89.53
2023-03-15T03:17:14.432Z,89.58
2023-03-15T03:22:16.709Z,90.08
2023-03-15T03:27:19.143Z,90.50
2023-03-15T03:32:22.259Z,90.83
2023-03-15T03:37:24.069Z,90.97
2023-03-15T03:42:48.648Z,90.64
2023-03-15T03:47:53.313Z,89.91
2023-03-15T03:52:55.286Z,89.85
2023-03-15T03:58:01.932Z,89.65
2023-03-15T04:03:13.991Z,88.89
2023-03-15T04:08:21.701Z,89.13
2023-03-15T04:13:25.358Z,88.80
2023-03-15T04:18:28.400Z,89.27
2023-03-15T04:23:30.532Z,88.78
2023-03-15T04:28:45.119Z,89.12
2023-03-15T04:34:04.534Z,89.20
2023-03-15T04:39:32.820Z,89.43
2023-03-15T04:44:56.756Z,88.93
2023-03-15T04:50:23.782Z,88.43
2023-03-15T04:55:35.300Z,87.83
2023-03-15T05:01:15.441Z,87.73
2023-03-15T05:06:26.472Z,87.63
2023-03-15T05:11:57.914Z,87.25
2023-03-15T05:17:24.572Z,86.84
2023-03-15T05:22:45.042Z,86.63
2023-03-15T05:28:06.107Z,86.23
2023-03-15T05:33:33.919Z,85.84
2023-03-15T05:39:03.224Z,85.76
2023-03-15T05:44:29.292Z,85.64
2023-03-15T05:49:52.452Z,85.10
2023-03-15T05:55:24.197Z,85.00
2023-03-15T06:00:49.307Z,84.75
2023-03-15T06:06:06.107Z,85.07
2023-03-15T06:11:13.345Z,84.84
2023-03-15T06:16:15.915Z,84.54
2023-03-15T06:21:21.880Z,84.53
2023-03-15T06:26:24.063Z,84.61
2023-03-15T06:31:30.131Z,84.76
2023-03-15T06:36:38.740Z,84.88
2023-03-15T06:41:41.927Z,84.89
2023-03-15T06:46:49.857Z,84.32
2023-03-15T06:51:53.702Z,84.15
2023-03-15T06:56:57.787Z,83.68
2023-03-15T07:01:59.523Z,83.42
2023-03-15T07:07:01.298Z,84.07
2023-03-15T07:12:03.021Z,83.91
2023-03-15T07:17:04.901Z,82.31
2023-03-15T07:22:06.918Z,82.43
2023-03-15T07:27:15.054Z,82.92
2023-03-15T07:32:18.049Z,82.13
2023-03-15T07:37:19.941Z,82.01
2023-03-15T07:42:21.722Z,81.14
2023-03-15T07:47:26.696Z,82.63
2023-03-15T07:52:28.354Z,79.61
2023-03-15T07:57:30.130Z,81.08
2023-03-15T08:02:32.143Z,80.77
2023-03-15T08:07:33.866Z,80.76
2023-03-15T08:12:35.634Z,78.62
2023-03-15T08:17:37.776Z,78.37
2023-03-15T08:22:39.440Z,77.86
2023-03-15T08:27:42.128Z,76.17
2023-03-15T08:32:46.340Z,75.87
2023-03-15T08:37:52.306Z,75.33
2023-03-15T08:42:54.515Z,76.09
2023-03-15T08:48:00.402Z,73.73
2023-03-15T08:53:02.149Z,73.40
2023-03-15T08:58:05.234Z,72.82
2023-03-15T09:03:07.499Z,71.83
2023-03-15T09:08:09.139Z,71.40
2023-03-15T09:13:15.037Z,69.22
2023-03-15T09:18:18.003Z,68.20
2023-03-15T09:23:21.288Z,67.85
2023-03-15T09:28:25.710Z,68.17
2023-03-15T09:33:27.544Z,68.12
2023-03-15T09:38:29.356Z,64.59
2023-03-15T09:43:43.496Z,65.48
2023-03-15T09:49:01.313Z,64.15
2023-03-15T09:54:19.061Z,62.91
2023-03-15T09:59:22.937Z,64.37
2023-03-15T10:04:30.868Z,63.62
2023-03-15T10:09:33.744Z,62.33
2023-03-15T10:14:50.532Z,62.16
2023-03-15T10:19:58.966Z,63.31
2023-03-15T10:25:23.533Z,61.08
2023-03-15T10:30:29.431Z,62.07
2023-03-15T10:35:32.142Z,59.54
2023-03-15T10:40:39.794Z,59.46
2023-03-15T10:45:41.664Z,60.31
2023-03-15T10:50:43.413Z,60.75
2023-03-15T10:55:45.592Z,61.80
2023-03-15T11:00:53.523Z,63.28
2023-03-15T11:05:57.437Z,59.67
2023-03-15T11:11:00.239Z,59.28
2023-03-15T11:16:04.464Z,57.43
2023-03-15T11:21:12.161Z,59.66
2023-03-15T11:26:25.775Z,57.83
2023-03-15T11:31:35.631Z,58.72
2023-03-15T11:36:41.489Z,55.49
2023-03-15T11:41:55.125Z,55.90
2023-03-15T11:47:24.565Z,53.98
2023-03-15T11:52:29.110Z,55.17
2023-03-15T11:57:37.220Z,53.81
2023-03-15T12:02:52.638Z,55.04
2023-03-15T12:08:15.444Z,55.81
2023-03-15T12:13:22.248Z,55.84
2023-03-15T12:18:33.555Z,55.88
2023-03-15T12:23:40.340Z,55.60
2023-03-15T12:28:51.273Z,55.13
2023-03-15T12:33:58.235Z,54.83
2023-03-15T12:39:15.121Z,54.88
2023-03-15T12:44:33.335Z,54.80
2023-03-15T12:49:44.231Z,54.39
2023-03-15T12:54:53.851Z,53.19
2023-03-15T13:00:15.040Z,52.65
2023-03-15T13:05:30.415Z,53.06
2023-03-15T13:10:50.493Z,52.80
2023-03-15T13:16:06.856Z,52.20
2023-03-15T13:21:16.729Z,52.17
2023-03-15T13:26:27.105Z,52.04
2023-03-15T13:31:31.678Z,52.58
2023-03-15T13:36:46.051Z,53.43
2023-03-15T13:41:47.986Z,54.31
2023-03-15T13:46:51.567Z,54.73
2023-03-15T13:51:53.740Z,55.41
2023-03-15T13:57:16.556Z,57.31
2023-03-15T14:02:25.088Z,55.87
2023-03-15T14:07:36.998Z,58.22
2023-03-15T14:12:39.003Z,59.80
2023-03-15T14:17:53.013Z,61.53
2023-03-15T14:22:58.925Z,61.58
2023-03-15T14:28:02.496Z,61.99
2023-03-15T14:33:08.688Z,62.65
2023-03-15T14:38:22.854Z,63.98
2023-03-15T14:43:24.626Z,64.54
2023-03-15T14:48:32.147Z,65.40
2023-03-15T14:53:36.089Z,66.29
2023-03-15T14:58:37.745Z,65.92
2023-03-15T15:03:43.186Z,66.32
2023-03-15T15:08:46.976Z,66.58
2023-03-15T15:13:48.756Z,66.70
2023-03-15T15:18:50.585Z,66.95
2023-03-15T15:23:58.343Z,67.18
2023-03-15T15:29:01.113Z,67.94
2023-03-15T15:34:02.957Z,68.53
2023-03-15T15:39:15.979Z,68.70
2023-03-15T15:44:19.079Z,67.69
2023-03-15T15:49:21.108Z,68.35
2023-03-15T15:54:26.750Z,67.72
2023-03-15T15:59:28.565Z,68.48
2023-03-15T16:04:30.861Z,68.37
2023-03-15T16:09:37.547Z,68.65
2023-03-15T16:14:39.577Z,68.63
2023-03-15T16:19:41.345Z,68.29
2023-03-15T16:24:46.796Z,68.67
2023-03-15T16:29:49.904Z,68.69
2023-03-15T16:34:53.217Z,68.95
2023-03-15T16:39:57.738Z,68.45
2023-03-15T16:44:59.598Z,68.02
2023-03-15T16:50:01.318Z,67.31
2023-03-15T16:55:03.838Z,66.34
2023-03-15T17:00:11.879Z,66.61
2023-03-15T17:05:19.859Z,67.34
2023-03-15T17:10:27.550Z,67.23
2023-03-15T17:15:30.625Z,68.17
2023-03-15T17:20:32.511Z,68.22
2023-03-15T17:25:34.524Z,68.53
2023-03-15T17:30:37.610Z,68.90
2023-03-15T17:35:47.864Z,69.06
2023-03-15T17:40:50.521Z,69.44
2023-03-15T17:45:52.314Z,69.55
2023-03-15T17:50:54.050Z,69.49
2023-03-15T17:55:55.785Z,69.60
2023-03-15T18:00:57.629Z,69.44
2023-03-15T18:06:01.359Z,69.70
2023-03-15T18:11:03.302Z,69.83
2023-03-15T18:16:05.369Z,70.03
2023-03-15T18:21:13.320Z,70.39
2023-03-15T18:26:15.857Z,70.64
2023-03-15T18:31:25.446Z,70.75
2023-03-15T18:36:27.101Z,70.86
2023-03-15T18:41:28.772Z,71.38
2023-03-15T18:46:31.708Z,71.07
2023-03-15T18:51:34.094Z,71.10
2023-03-15T18:56:35.808Z,70.89
2023-03-15T19:01:38.253Z,71.01
2023-03-15T19:06:40.210Z,70.74
2023-03-15T19:11:43.412Z,71.19
2023-03-15T19:16:45.140Z,71.55
2023-03-15T19:21:46.962Z,71.25
2023-03-15T19:26:48.647Z,71.50
2023-03-15T19:31:50.535Z,71.78
2023-03-15T19:36:52.967Z,71.81
2023-03-15T19:41:54.654Z,71.74
2023-03-15T19:46:56.917Z,71.29
2023-03-15T19:51:58.645Z,71.12
2023-03-15T19:57:00.902Z,71.17
2023-03-15T20:02:02.707Z,71.45
2023-03-15T20:07:04.526Z,71.06
2023-03-15T20:12:08.024Z,70.72
2023-03-15T20:17:09.698Z,70.64
2023-03-15T20:22:11.399Z,70.90
2023-03-15T20:27:13.639Z,71.29
2023-03-15T20:32:15.840Z,71.27
2023-03-15T20:37:18.401Z,71.25
2023-03-15T20:42:24.354Z,72.14
2023-03-15T20:47:26.393Z,72.22
2023-03-15T20:52:28.221Z,72.08
2023-03-15T20:57:29.926Z,72.29
2023-03-15T21:02:31.738Z,72.30
2023-03-15T21:07:34.176Z,72.56
2023-03-15T21:12:36.100Z,72.63
2023-03-15T21:17:37.850Z,72.50
2023-03-15T21:22:39.557Z,73.01
2023-03-15T21:27:41.285Z,72.61
2023-03-15T21:32:43.557Z,73.12
2023-03-15T21:37:45.627Z,72.96
2023-03-15T21:42:47.796Z,73.28
2023-03-15T21:47:52.939Z,73.39
2023-03-15T21:52:56.519Z,73.28
2023-03-15T21:57:58.473Z,73.54
2023-03-15T22:03:01.393Z,73.84
2023-03-15T22:08:03.180Z,73.88
2023-03-15T22:13:04.865Z,73.93
2023-03-15T22:18:06.652Z,74.19
2023-03-15T22:23:08.701Z,74.33
2023-03-15T22:28:11.226Z,74.01
2023-03-15T22:33:12.883Z,74.45
2023-03-15T22:38:15.668Z,74.31
2023-03-15T22:43:17.751Z,74.47
2023-03-15T22:48:19.437Z,74.16
2023-03-15T22:53:21.154Z,73.96
2023-03-15T22:58:23.209Z,74.22
2023-03-15T23:03:26.266Z,74.68
2023-03-15T23:08:28.210Z,74.62
2023-03-15T23:13:29.915Z,74.38
2023-03-15T23:18:34.281Z,74.73
2023-03-15T23:23:38.541Z,74.55
2023-03-15T23:28:40.265Z,74.97
2023-03-15T23:33:42.741Z,74.84
2023-03-15T23:38:44.507Z,74.94
2023-03-15T23:43:46.209Z,74.71
2023-03-15T23:48:47.882Z,75.09
2023-03-15T23:53:49.625Z,74.90
2023-03-15T23:58:51.796Z,75.11
